Terminal Aerodrome Forecast
Issued by NWS Cleveland, OH

Home | Current Version | Previous Version | Text Only | Print | Product List | Glossary On
Versions: 1 2 3 4 5 6 7 8 9 10 11 12 13 14 15 16
000
FTUS41 KCLE 011120
TAFYNG
TAF
KYNG 011120Z 0112/0212 23007KT 3SM BR SCT004 BKN010
      TEMPO 0112/0114 1SM BR BKN004
     FM011400 28007KT P6SM BKN015
     FM011600 28010KT P6SM BKN025
      TEMPO 0116/0118 SCT025 BKN045
     FM011800 28010KT P6SM BKN045
     FM020100 32003KT P6SM SCT250
     FM020800 01002KT 3SM BR BKN012=

USA.gov is the U.S. government's official web portal to all federal, state and local government web resources and services.